createdAt,value
2019-02-10T00:00:07.141Z,100212.80
2019-02-10T00:03:02.623Z,100212.41
2019-02-10T00:05:31.634Z,100207.73
2019-02-10T00:08:33.812Z,100195.33
2019-02-10T00:14:01.599Z,100182.73
2019-02-10T00:20:40.937Z,100171.48
2019-02-10T00:23:31.314Z,100168.42
2019-02-10T00:33:15.347Z,100134.22
2019-02-10T00:36:05.704Z,100115.03
2019-02-10T00:38:51.166Z,100115.03
2019-02-10T00:41:53.940Z,100128.69
2019-02-10T00:50:35.830Z,100105.22
2019-02-10T00:53:20.230Z,100088.48
2019-02-10T01:05:15.423Z,100053.17
2019-02-10T01:17:06.932Z,100034.09
2019-02-10T01:20:04.923Z,100011.99
2019-02-10T01:26:32.917Z,100004.13
2019-02-10T01:29:31.003Z,99983.13
2019-02-10T01:32:27.485Z,99991.98
2019-02-10T01:50:41.278Z,99937.17
2019-02-10T01:53:40.406Z,99923.02
2019-02-10T01:59:19.851Z,99900.89
2019-02-10T02:02:32.555Z,99879.66
2019-02-10T02:08:18.633Z,99868.72
2019-02-10T02:11:17.853Z,99854.20
2019-02-10T02:17:09.760Z,99832.39
2019-02-10T02:26:32.474Z,99821.31
2019-02-10T02:32:57.995Z,99810.10
2019-02-10T02:38:48.774Z,99787.55
2019-02-10T02:41:48.079Z,99784.26
2019-02-10T02:44:16.265Z,99772.41
2019-02-10T02:47:04.306Z,99765.69
2019-02-10T02:58:57.625Z,99706.61
2019-02-10T03:01:45.016Z,99697.28
2019-02-10T03:04:46.470Z,99684.08
2019-02-10T03:09:46.213Z,99679.81
2019-02-10T03:12:14.706Z,99673.64
2019-02-10T03:18:03.101Z,99658.97
2019-02-10T03:20:50.654Z,99649.91
2019-02-10T03:26:38.209Z,99637.97
2019-02-10T03:31:56.815Z,99612.66
2019-02-10T03:34:55.823Z,99609.69
2019-02-10T03:40:57.285Z,99579.66
2019-02-10T03:46:33.622Z,99564.28
2019-02-10T03:52:19.157Z,99548.91
2019-02-10T03:58:07.587Z,99513.13
2019-02-10T04:03:51.692Z,99500.06
2019-02-10T04:06:39.209Z,99469.64
2019-02-10T04:09:26.687Z,99472.94
2019-02-10T04:14:53.535Z,99439.25
2019-02-10T04:20:53.685Z,99431.77
2019-02-10T04:26:24.601Z,99409.47
2019-02-10T04:29:05.500Z,99403.72
2019-02-10T04:37:30.273Z,99374.75
2019-02-10T04:40:10.711Z,99365.37
2019-02-10T04:43:00.438Z,99351.59
2019-02-10T04:48:44.154Z,99326.70
2019-02-10T04:51:23.635Z,99315.89
2019-02-10T04:57:35.914Z,99291.69
2019-02-10T05:05:46.404Z,99250.00
2019-02-10T05:08:33.896Z,99229.91
2019-02-10T05:11:35.683Z,99226.26
2019-02-10T05:17:13.748Z,99215.30
2019-02-10T05:23:02.522Z,99185.92
2019-02-10T05:25:51.500Z,99171.99
2019-02-10T05:31:27.889Z,99151.41
2019-02-10T05:34:16.185Z,99106.28
2019-02-10T05:36:55.040Z,99143.11
2019-02-10T05:39:42.541Z,99132.67
2019-02-10T05:46:50.679Z,99102.63
2019-02-10T05:52:22.356Z,99095.79
2019-02-10T05:54:50.980Z,99084.02
2019-02-10T06:03:52.091Z,99072.73
2019-02-10T06:09:48.898Z,99047.45
2019-02-10T06:15:27.185Z,99042.27
2019-02-10T06:18:06.011Z,99028.51
2019-02-10T06:21:40.837Z,99023.94
2019-02-10T06:23:34.147Z,99008.27
2019-02-10T06:29:19.858Z,98998.85
2019-02-10T06:32:19.034Z,98988.19
2019-02-10T06:34:56.773Z,98976.86
2019-02-10T06:43:41.710Z,98969.98
2019-02-10T06:48:59.856Z,98948.63
2019-02-10T06:51:38.706Z,98944.65
2019-02-10T06:54:38.148Z,98926.37
2019-02-10T06:57:15.643Z,98917.22
2019-02-10T07:00:06.081Z,98906.58
2019-02-10T07:06:03.043Z,98881.69
2019-02-10T07:08:30.222Z,98874.92
2019-02-10T07:11:23.139Z,98866.34
2019-02-10T07:16:57.669Z,98855.48
2019-02-10T07:19:57.449Z,98854.48
2019-02-10T07:27:51.845Z,98832.88
2019-02-10T07:33:40.993Z,98828.89
2019-02-10T07:36:19.261Z,98821.83
2019-02-10T07:39:20.692Z,98813.33
2019-02-10T07:45:07.519Z,98796.08
2019-02-10T07:47:45.353Z,98805.82
2019-02-10T07:50:37.872Z,98798.02
2019-02-10T07:53:44.135Z,98795.78
2019-02-10T07:59:38.908Z,98793.67
2019-02-10T08:05:27.287Z,98786.64
2019-02-10T08:08:21.454Z,98783.52
2019-02-10T08:11:07.902Z,98785.39
2019-02-10T08:22:28.165Z,98776.86
2019-02-10T08:34:14.708Z,98750.52
2019-02-10T08:37:04.210Z,98728.66
2019-02-10T08:39:37.812Z,98736.52
2019-02-10T08:45:34.351Z,98731.11
2019-02-10T08:51:38.685Z,98724.59
2019-02-10T08:54:24.262Z,98718.16
2019-02-10T08:58:43.661Z,98713.94
2019-02-10T09:09:17.174Z,98693.08
2019-02-10T09:12:24.083Z,98692.03
2019-02-10T09:14:56.740Z,98695.37
2019-02-10T09:17:30.516Z,98688.12
2019-02-10T09:20:18.275Z,98688.34
2019-02-10T13:38:24.325Z,98634.35
2019-02-10T13:44:40.559Z,98641.71
2019-02-10T13:51:00.779Z,98638.70
2019-02-10T13:56:54.133Z,98643.42
2019-02-10T14:18:08.146Z,98644.28
2019-02-10T14:30:59.087Z,98658.94
2019-02-10T14:33:42.634Z,98654.87
2019-02-10T14:36:22.846Z,98646.95
2019-02-10T14:39:14.768Z,98657.75
2019-02-10T14:42:03.325Z,98657.27
2019-02-10T15:06:58.714Z,98653.27
2019-02-10T15:10:11.792Z,98658.03
2019-02-10T15:22:16.575Z,98680.51
2019-02-10T15:28:36.250Z,98689.87
2019-02-10T15:35:14.093Z,98700.13
2019-02-10T15:40:56.965Z,98711.51
